Time;durP1;ratioP1;P1;durP2;ratioP2;P2;SDS_P1;SDS_P2;PMS_P1;PMS_P2;Temp;Humidity;BMP_temperature;BMP_pressure;BME280_temperature;BME280_humidity;BME280_pressure;Samples;Min_cycle;Max_cycle;Signal;HPM_P1;HPM_P2
2023/10/10 00:02:28;;;;;;;8.57;3.35;;;15.20;90.60;;;;;;5077353;28;20521;-71
2023/10/10 00:04:56;;;;;;;9.27;3.40;;;15.20;90.60;;;;;;5086429;28;20547;-72
2023/10/10 00:07:23;;;;;;;10.40;3.50;;;15.20;90.60;;;;;;5095757;28;20520;-71
2023/10/10 00:09:50;;;;;;;8.20;3.28;;;15.20;90.60;;;;;;5076444;28;20402;-71
2023/10/10 00:12:26;;;;;;;11.55;3.40;;;15.20;90.70;;;;;;5087742;28;20437;-72
2023/10/10 00:14:58;;;;;;;8.38;3.28;;;15.20;90.90;;;;;;5088341;28;20929;-72
2023/10/10 00:17:29;;;;;;;7.25;3.30;;;15.20;90.60;;;;;;5099827;28;20419;-71
2023/10/10 00:20:16;;;;;;;9.27;3.35;;;15.20;90.60;;;;;;5087199;28;20478;-71
2023/10/10 00:22:43;;;;;;;9.45;2.80;;;15.20;90.60;;;;;;5087489;28;20995;-71
2023/10/10 00:25:12;;;;;;;9.45;2.90;;;15.20;90.60;;;;;;5085881;28;20410;-71
2023/10/10 00:27:39;;;;;;;7.32;2.97;;;15.20;90.60;;;;;;5085980;28;21009;-71
2023/10/10 00:30:06;;;;;;;11.13;3.22;;;15.10;90.60;;;;;;5087341;28;21073;-71
2023/10/10 00:32:35;;;;;;;8.80;3.20;;;15.10;90.50;;;;;;5074706;28;21244;-71
2023/10/10 00:35:02;;;;;;;11.02;3.72;;;15.10;90.50;;;;;;5087332;28;20523;-71
2023/10/10 00:37:34;;;;;;;10.00;3.20;;;15.10;90.50;;;;;;5095822;28;20404;-71
2023/10/10 00:40:07;;;;;;;12.45;4.07;;;15.10;90.60;;;;;;5094437;28;20410;-71
2023/10/10 00:42:41;;;;;;;8.90;4.20;;;15.10;90.60;;;;;;5091256;28;20430;-71
2023/10/10 00:45:12;;;;;;;10.13;4.30;;;15.10;90.70;;;;;;5090897;28;20405;-71
2023/10/10 00:47:43;;;;;;;9.50;4.65;;;15.00;90.70;;;;;;5089866;28;20402;-71
2023/10/10 00:50:16;;;;;;;10.60;5.20;;;15.00;90.80;;;;;;5090558;28;20426;-71
2023/10/10 00:52:53;;;;;;;11.45;5.60;;;15.10;90.90;;;;;;5092598;28;20938;-71
2023/10/10 00:55:22;;;;;;;12.10;5.63;;;15.10;90.90;;;;;;5079646;28;20425;-71
2023/10/10 00:58:01;;;;;;;13.50;5.93;;;15.00;90.80;;;;;;5090101;28;20451;-72
2023/10/10 01:00:31;;;;;;;12.70;6.30;;;15.00;90.90;;;;;;5084386;28;20915;-71
2023/10/10 01:03:20;;;;;;;12.55;5.85;;;15.00;90.90;;;;;;5087211;28;20424;-72
2023/10/10 01:05:52;;;;;;;13.52;6.03;;;15.00;91.00;;;;;;5083860;28;20416;-71
2023/10/10 01:08:26;;;;;;;11.60;6.47;;;15.00;91.00;;;;;;5079611;28;20409;-71
2023/10/10 01:10:56;;;;;;;12.10;6.10;;;14.90;91.00;;;;;;5090268;28;20457;-73
2023/10/10 01:13:22;;;;;;;12.77;6.47;;;15.00;91.10;;;;;;5089228;28;20437;-73
2023/10/10 01:15:48;;;;;;;12.57;6.83;;;14.90;91.10;;;;;;5089594;28;20445;-71
2023/10/10 01:18:14;;;;;;;12.18;6.47;;;14.90;91.20;;;;;;5090540;28;20469;-70
2023/10/10 01:20:50;;;;;;;13.47;6.70;;;14.90;91.30;;;;;;5085100;28;20414;-70
2023/10/10 01:23:18;;;;;;;12.18;6.80;;;14.90;91.40;;;;;;5090262;28;20438;-71
2023/10/10 01:25:45;;;;;;;12.25;6.72;;;15.00;91.50;;;;;;5088434;28;20928;-72
2023/10/10 01:28:33;;;;;;;13.75;6.75;;;15.00;91.60;;;;;;5088783;28;20956;-72
2023/10/10 01:31:10;;;;;;;12.98;7.28;;;15.00;91.60;;;;;;5089709;28;20406;-72
2023/10/10 01:33:36;;;;;;;13.38;7.20;;;15.00;91.60;;;;;;5090915;28;20396;-71
2023/10/10 01:36:11;;;;;;;11.40;6.60;;;15.00;91.70;;;;;;5088556;28;20455;-71
2023/10/10 01:39:08;;;;;;;15.07;7.38;;;15.00;91.70;;;;;;5088488;28;20449;-71
2023/10/10 01:41:40;;;;;;;12.93;7.30;;;15.00;91.70;;;;;;5090608;28;20904;-71
2023/10/10 01:44:12;;;;;;;13.63;7.72;;;15.00;91.60;;;;;;5089895;28;20409;-71
2023/10/10 01:46:42;;;;;;;13.40;7.60;;;15.00;91.60;;;;;;5089558;28;20475;-71
2023/10/10 01:49:20;;;;;;;14.20;7.97;;;14.90;91.50;;;;;;5082138;28;20424;-72
2023/10/10 01:51:50;;;;;;;14.55;8.30;;;14.90;91.60;;;;;;5087837;28;20406;-71
2023/10/10 01:54:18;;;;;;;16.20;8.88;;;14.90;91.70;;;;;;5089866;28;20791;-71
2023/10/10 01:56:45;;;;;;;15.27;8.10;;;15.00;91.70;;;;;;5089410;28;20405;-71
2023/10/10 01:59:14;;;;;;;16.52;8.65;;;14.90;91.70;;;;;;5092860;28;20475;-71
2023/10/10 02:01:41;;;;;;;19.67;8.43;;;14.90;91.70;;;;;;5089414;28;20413;-71
2023/10/10 02:04:07;;;;;;;14.85;8.32;;;14.80;91.60;;;;;;5088356;28;20852;-71
2023/10/10 02:06:40;;;;;;;14.80;8.63;;;14.90;91.60;;;;;;5071012;28;20427;-72
2023/10/10 02:09:19;;;;;;;14.75;8.50;;;14.80;91.60;;;;;;5096059;28;20435;-71
2023/10/10 02:11:53;;;;;;;17.02;8.45;;;14.80;91.60;;;;;;5089297;28;20447;-71
2023/10/10 02:14:24;;;;;;;14.55;8.70;;;14.70;91.50;;;;;;5088654;28;20914;-71
2023/10/10 02:16:50;;;;;;;15.10;8.53;;;14.70;91.90;;;;;;5088148;28;21026;-71
2023/10/10 02:19:16;;;;;;;14.88;8.30;;;14.70;91.50;;;;;;5094399;28;20440;-71
2023/10/10 02:22:03;;;;;;;14.82;8.23;;;14.60;91.50;;;;;;5089271;28;20493;-71
2023/10/10 02:26:55;;;;;;;16.98;7.95;;;14.50;91.60;;;;;;5091090;28;20402;-71
2023/10/10 02:34:35;;;;;;;13.95;7.78;;;14.50;91.70;;;;;;5089060;28;20543;-71
2023/10/10 02:37:41;;;;;;;14.23;7.63;;;14.50;91.70;;;;;;5089081;28;20469;-71
2023/10/10 02:40:42;;;;;;;13.52;7.75;;;14.40;91.70;;;;;;5086989;28;20783;-71
2023/10/10 02:43:16;;;;;;;14.07;7.78;;;14.40;91.70;;;;;;5084086;28;20436;-71
2023/10/10 02:45:36;;;;;;;15.45;8.13;;;14.40;91.70;;;;;;5088480;28;20448;-71
2023/10/10 02:48:07;;;;;;;15.47;7.70;;;14.30;91.80;;;;;;5088653;28;20885;-71
2023/10/10 02:50:40;;;;;;;15.52;8.07;;;14.30;91.80;;;;;;5078194;28;20623;-71
2023/10/10 02:53:09;;;;;;;16.17;7.97;;;14.30;91.80;;;;;;5121331;27;21034;-71
2023/10/10 02:55:41;;;;;;;14.85;8.52;;;14.30;91.80;;;;;;5088422;28;20426;-71
2023/10/10 02:58:22;;;;;;;15.53;7.87;;;14.20;91.90;;;;;;5088737;28;20928;-71
2023/10/10 03:00:57;;;;;;;16.33;7.90;;;14.20;92.00;;;;;;5085014;28;20414;-71
2023/10/10 03:03:26;;;;;;;15.57;8.25;;;14.20;92.10;;;;;;5088806;28;20434;-71
2023/10/10 03:05:51;;;;;;;16.48;8.05;;;14.20;92.20;;;;;;5088368;28;20476;-71
2023/10/10 03:11:00;;;;;;;13.32;8.27;;;14.30;92.40;;;;;;5087065;28;20457;-72
2023/10/10 03:13:28;;;;;;;13.95;8.60;;;14.30;92.50;;;;;;5087841;28;20406;-71
2023/10/10 03:21:42;;;;;;;17.80;8.75;;;14.40;92.70;;;;;;5087877;28;20425;-71
2023/10/10 03:24:15;;;;;;;15.38;8.40;;;14.40;92.70;;;;;;5088138;28;20410;-71
2023/10/10 03:29:21;;;;;;;17.70;8.93;;;14.50;92.90;;;;;;5086784;28;20467;-71
2023/10/10 03:32:19;;;;;;;16.83;8.90;;;14.50;92.90;;;;;;5081704;28;20429;-71
2023/10/10 03:34:44;;;;;;;21.02;9.15;;;14.50;93.00;;;;;;5120218;27;20417;-71
2023/10/10 03:37:27;;;;;;;18.47;8.80;;;14.50;93.00;;;;;;5092577;28;20539;-71
2023/10/10 03:39:54;;;;;;;15.27;9.17;;;14.60;93.10;;;;;;5087359;28;20449;-71
2023/10/10 05:24:35;;;;;;;19.02;11.45;;;15.10;94.00;;;;;;5090653;28;20402;-68
2023/10/10 05:27:02;;;;;;;20.63;11.03;;;15.10;94.00;;;;;;5090185;28;20501;-70
2023/10/10 05:29:30;;;;;;;19.00;11.00;;;15.10;94.00;;;;;;5105721;28;20406;-70
2023/10/10 05:31:59;;;;;;;18.10;11.15;;;15.10;94.00;;;;;;5096342;28;20427;-71
2023/10/10 05:34:25;;;;;;;20.67;11.45;;;15.10;94.00;;;;;;5072997;28;20396;-71
2023/10/10 05:36:50;;;;;;;18.20;11.10;;;15.10;94.00;;;;;;5090021;28;20448;-71
2023/10/10 05:39:21;;;;;;;20.85;11.32;;;15.10;94.00;;;;;;5089533;28;20397;-71
2023/10/10 05:41:47;;;;;;;19.13;11.10;;;15.20;94.10;;;;;;5083438;28;21334;-71
2023/10/10 05:44:16;;;;;;;22.37;11.40;;;15.10;94.10;;;;;;5085646;28;20491;-71
2023/10/10 05:46:43;;;;;;;18.38;10.57;;;15.10;94.10;;;;;;5090154;28;20410;-71
2023/10/10 05:49:08;;;;;;;17.00;10.80;;;15.10;94.10;;;;;;5089567;28;20398;-72
2023/10/10 05:51:35;;;;;;;18.67;10.50;;;15.20;94.10;;;;;;5089760;28;20409;-71
2023/10/10 05:54:00;;;;;;;19.52;11.10;;;15.20;94.10;;;;;;5088670;28;20800;-72
2023/10/10 05:56:26;;;;;;;17.60;10.80;;;15.20;94.10;;;;;;5089588;28;20424;-72
2023/10/10 05:58:52;;;;;;;18.35;10.82;;;15.20;94.10;;;;;;5089130;28;20451;-72
2023/10/10 06:01:18;;;;;;;18.17;10.48;;;15.20;94.20;;;;;;5089546;28;20451;-72
2023/10/10 06:03:45;;;;;;;18.33;10.20;;;15.20;94.20;;;;;;5089542;28;20839;-71
2023/10/10 06:06:12;;;;;;;16.70;10.02;;;15.20;94.20;;;;;;5090051;28;20402;-71
2023/10/10 06:08:41;;;;;;;19.90;10.57;;;15.20;94.20;;;;;;5088546;28;20397;-71
2023/10/10 06:11:10;;;;;;;17.65;10.05;;;15.20;94.10;;;;;;5087927;28;20425;-71
2023/10/10 06:13:39;;;;;;;16.45;10.90;;;15.10;94.10;;;;;;5087703;28;20414;-72
2023/10/10 06:16:13;;;;;;;20.42;11.20;;;15.10;94.10;;;;;;5088150;28;20413;-72
2023/10/10 06:18:47;;;;;;;17.77;11.03;;;15.10;94.10;;;;;;5088984;28;20402;-71
2023/10/10 06:21:16;;;;;;;16.63;10.50;;;15.10;94.10;;;;;;5087750;28;20406;-72
2023/10/10 06:23:43;;;;;;;20.63;10.38;;;15.10;94.10;;;;;;5088582;28;21036;-71
2023/10/10 06:26:10;;;;;;;19.27;11.05;;;15.10;94.10;;;;;;5089532;28;20405;-71
2023/10/10 06:28:45;;;;;;;20.33;11.40;;;15.10;94.10;;;;;;5088634;28;20413;-71
2023/10/10 06:31:19;;;;;;;21.90;11.38;;;15.10;94.20;;;;;;5088860;28;20486;-71
2023/10/10 06:33:49;;;;;;;21.17;12.05;;;15.10;94.20;;;;;;5088940;28;20438;-71
2023/10/10 06:41:35;;;;;;;23.13;13.10;;;15.10;94.30;;;;;;5087966;28;20410;-71
2023/10/10 06:44:01;;;;;;;24.77;13.17;;;15.10;94.30;;;;;;5088785;28;20939;-71
2023/10/10 06:46:32;;;;;;;23.27;13.40;;;15.20;94.30;;;;;;5088455;28;20398;-71
2023/10/10 06:49:06;;;;;;;28.17;13.93;;;15.20;94.40;;;;;;5088545;28;20402;-71
2023/10/10 06:51:39;;;;;;;28.13;14.68;;;15.20;94.40;;;;;;5087236;28;21123;-72
2023/10/10 06:54:08;;;;;;;27.70;15.45;;;15.20;94.40;;;;;;5104409;28;20503;-72
2023/10/10 06:56:44;;;;;;;29.77;15.55;;;15.20;94.40;;;;;;5088498;28;20494;-71
2023/10/10 06:59:16;;;;;;;33.30;16.40;;;15.20;94.40;;;;;;5086832;28;20975;-72
2023/10/10 07:01:48;;;;;;;31.15;16.17;;;15.20;94.40;;;;;;5088254;28;20394;-72
2023/10/10 07:04:15;;;;;;;32.60;16.35;;;15.30;94.60;;;;;;5087727;28;20402;-71
2023/10/10 07:06:45;;;;;;;34.40;18.10;;;15.30;94.70;;;;;;5088593;28;20441;-71
2023/10/10 07:09:36;;;;;;;34.47;18.20;;;15.30;95.00;;;;;;5120473;27;20409;-71
2023/10/10 07:12:10;;;;;;;33.67;18.77;;;15.40;94.70;;;;;;5087845;28;20809;-72
2023/10/10 07:14:46;;;;;;;38.93;19.60;;;15.40;94.60;;;;;;5086403;28;20473;-72
2023/10/10 07:17:13;;;;;;;38.67;20.27;;;15.40;94.60;;;;;;5088200;28;20398;-71
2023/10/10 07:22:33;;;;;;;45.13;21.42;;;15.50;94.60;;;;;;5077364;28;20807;-71
2023/10/10 07:25:10;;;;;;;38.75;20.58;;;15.50;94.70;;;;;;5087498;28;20426;-71
2023/10/10 07:27:41;;;;;;;36.75;20.35;;;15.50;94.80;;;;;;5088258;28;20404;-71
2023/10/10 07:30:17;;;;;;;38.80;21.43;;;15.60;94.80;;;;;;5088260;28;20406;-71
2023/10/10 07:32:52;;;;;;;37.53;21.20;;;15.60;94.90;;;;;;5088067;28;20406;-71
2023/10/10 07:35:25;;;;;;;35.92;20.90;;;15.70;95.00;;;;;;5087675;28;20431;-72
2023/10/10 07:37:52;;;;;;;37.63;21.17;;;15.70;95.00;;;;;;5087613;28;20439;-71
2023/10/10 07:40:21;;;;;;;36.95;20.90;;;15.80;95.00;;;;;;5087660;28;20511;-71
2023/10/10 07:42:51;;;;;;;36.63;21.77;;;15.90;94.90;;;;;;5086320;28;20865;-71
2023/10/10 07:45:28;;;;;;;38.00;20.98;;;15.90;94.90;;;;;;5086948;28;20942;-71
2023/10/10 07:50:26;;;;;;;32.08;19.65;;;16.00;94.90;;;;;;5086355;28;20413;-71
2023/10/10 07:52:53;;;;;;;35.00;20.50;;;16.00;94.80;;;;;;5115592;28;20419;-71
2023/10/10 07:55:19;;;;;;;33.47;20.35;;;16.10;94.70;;;;;;5077234;28;20398;-71
2023/10/10 07:57:59;;;;;;;32.08;20.02;;;16.10;94.50;;;;;;5086971;28;20401;-71
2023/10/10 08:00:39;;;;;;;31.38;19.80;;;16.10;94.50;;;;;;5086195;28;20399;-71
2023/10/10 08:03:06;;;;;;;28.60;18.60;;;16.20;94.60;;;;;;5075538;28;20436;-71
2023/10/10 08:05:32;;;;;;;29.67;18.88;;;16.30;94.80;;;;;;5086392;28;20830;-71
2023/10/10 08:08:04;;;;;;;28.48;18.80;;;16.30;94.80;;;;;;5076818;28;20406;-71
2023/10/10 08:13:09;;;;;;;23.02;16.75;;;16.60;95.00;;;;;;5088108;28;20399;-71
2023/10/10 08:23:31;;;;;;;22.92;16.77;;;17.00;93.60;;;;;;5087247;28;20429;-71
2023/10/10 08:25:57;;;;;;;23.15;16.67;;;16.90;93.20;;;;;;5087253;28;20820;-71
2023/10/10 08:28:23;;;;;;;24.35;18.17;;;16.90;93.00;;;;;;5086736;28;20405;-71
2023/10/10 08:30:52;;;;;;;29.98;21.35;;;16.90;92.90;;;;;;5087743;28;20402;-71
2023/10/10 08:33:18;;;;;;;33.90;22.67;;;16.90;92.80;;;;;;5087373;28;20425;-71
2023/10/10 08:35:46;;;;;;;36.58;24.90;;;16.90;92.50;;;;;;5087409;28;20398;-71
2023/10/10 08:38:17;;;;;;;36.17;24.63;;;16.90;92.40;;;;;;5086680;28;20408;-71
2023/10/10 08:40:57;;;;;;;36.97;25.07;;;16.90;92.40;;;;;;5087320;28;20398;-71
2023/10/10 08:43:28;;;;;;;37.93;25.77;;;17.00;92.70;;;;;;5084592;28;20763;-71
2023/10/10 08:45:57;;;;;;;40.53;25.90;;;17.10;93.00;;;;;;5087247;28;20390;-71
2023/10/10 08:48:26;;;;;;;42.42;26.55;;;17.20;92.90;;;;;;5120444;28;20410;-71
2023/10/10 08:50:54;;;;;;;41.28;26.85;;;17.30;92.50;;;;;;5087002;28;20485;-71
2023/10/10 08:53:21;;;;;;;42.47;26.23;;;17.30;92.20;;;;;;5087508;28;20397;-71
2023/10/10 08:55:56;;;;;;;41.20;26.40;;;17.30;92.10;;;;;;5086652;28;20900;-71
2023/10/10 08:58:22;;;;;;;38.40;26.38;;;17.30;92.40;;;;;;5088008;28;20910;-71
2023/10/10 09:00:49;;;;;;;41.65;27.20;;;17.40;92.30;;;;;;5111263;27;20463;-72
2023/10/10 09:03:15;;;;;;;39.85;26.38;;;17.50;92.40;;;;;;5081564;28;20432;-71
2023/10/10 09:05:41;;;;;;;40.37;25.67;;;17.50;92.30;;;;;;5088431;28;20414;-72
2023/10/10 09:08:14;;;;;;;38.40;25.85;;;17.60;92.10;;;;;;5090556;28;20405;-71
2023/10/10 09:10:40;;;;;;;38.53;26.23;;;17.70;91.90;;;;;;5089038;28;20390;-71
2023/10/10 09:13:09;;;;;;;37.80;26.38;;;17.70;91.60;;;;;;5090456;28;20475;-71
2023/10/10 09:15:36;;;;;;;38.60;25.60;;;17.80;91.30;;;;;;5089439;28;20409;-71
2023/10/10 09:18:22;;;;;;;38.28;25.10;;;17.80;91.20;;;;;;5090660;28;20403;-71
2023/10/10 09:20:48;;;;;;;34.65;24.00;;;17.90;91.30;;;;;;5079151;28;20930;-71
2023/10/10 09:23:21;;;;;;;37.50;24.65;;;18.00;91.00;;;;;;5090210;28;20432;-71
2023/10/10 09:25:49;;;;;;;35.00;23.75;;;18.10;91.00;;;;;;5090272;28;20413;-71
2023/10/10 09:28:17;;;;;;;32.67;23.30;;;18.20;91.30;;;;;;5088639;28;20402;-72
2023/10/10 09:30:50;;;;;;;32.53;23.67;;;18.30;90.80;;;;;;5090393;28;20438;-71
2023/10/10 09:35:49;;;;;;;37.25;25.20;;;18.40;89.10;;;;;;5089977;28;20444;-72
2023/10/10 09:38:19;;;;;;;35.13;24.20;;;18.40;88.40;;;;;;5088368;28;20406;-71
2023/10/10 09:40:59;;;;;;;37.25;27.33;;;18.50;88.20;;;;;;5088857;28;20413;-72
2023/10/10 09:43:35;;;;;;;32.83;26.10;;;18.60;87.10;;;;;;5089621;28;20426;-72
2023/10/10 09:46:19;;;;;;;31.88;24.63;;;18.70;90.50;;;;;;5089837;28;20402;-71
2023/10/10 09:49:17;;;;;;;30.75;23.13;;;19.40;92.80;;;;;;5122429;27;21001;-72
2023/10/10 09:54:25;;;;;;;27.92;23.05;;;21.20;84.60;;;;;;5089301;28;20413;-73
2023/10/10 09:56:53;;;;;;;29.67;22.30;;;21.80;71.30;;;;;;5088640;28;20997;-73
2023/10/10 09:59:20;;;;;;;29.58;23.20;;;22.30;67.50;;;;;;5088907;28;20406;-73
2023/10/10 10:01:59;;;;;;;31.75;23.92;;;22.50;54.40;;;;;;5089892;28;20451;-72
2023/10/10 10:04:28;;;;;;;34.88;25.23;;;22.20;43.80;;;;;;5086709;28;20999;-72
2023/10/10 10:07:13;;;;;;;33.20;25.65;;;21.90;45.20;;;;;;5088396;28;20409;-73
2023/10/10 10:10:34;;;;;;;33.03;25.63;;;21.60;53.00;;;;;;5081029;28;20403;-72
2023/10/10 10:13:55;;;;;;;31.63;24.73;;;21.70;52.30;;;;;;5089707;28;20395;-71
2023/10/10 10:16:38;;;;;;;30.23;24.87;;;21.90;49.50;;;;;;5105573;27;20471;-72
2023/10/10 10:19:19;;;;;;;31.63;24.38;;;22.10;43.10;;;;;;5088298;28;20772;-72
2023/10/10 10:21:54;;;;;;;32.40;24.57;;;22.40;44.80;;;;;;5088883;28;20908;-72
2023/10/10 10:24:30;;;;;;;32.40;25.35;;;22.70;44.10;;;;;;5089493;28;20412;-71
2023/10/10 10:27:33;;;;;;;31.90;24.48;;;23.10;33.80;;;;;;5088796;28;20417;-72
2023/10/10 10:32:49;;;;;;;31.35;24.40;;;23.30;23.80;;;;;;5089015;28;20417;-72
2023/10/10 10:35:22;;;;;;;30.38;23.33;;;23.40;24.00;;;;;;5087599;28;20471;-71
2023/10/10 10:37:59;;;;;;;33.25;24.50;;;23.60;19.00;;;;;;5087515;28;20406;-72
2023/10/10 10:43:16;;;;;;;30.20;23.13;;;24.10;17.00;;;;;;5087206;28;20433;-72
2023/10/10 10:45:51;;;;;;;31.42;24.23;;;24.40;14.90;;;;;;5088613;28;20397;-72
2023/10/10 10:48:34;;;;;;;31.95;24.33;;;24.60;9.20;;;;;;5088357;28;20807;-72
2023/10/10 10:51:22;;;;;;;29.40;22.70;;;24.70;3.90;;;;;;5088785;28;20477;-72
2023/10/10 10:53:58;;;;;;;32.97;24.08;;;24.80;4.00;;;;;;5085071;28;20417;-72
2023/10/10 10:59:19;;;;;;;29.73;22.98;;;24.80;1.00;;;;;;5088243;28;20413;-72
2023/10/10 11:01:55;;;;;;;32.30;23.85;;;24.60;1.00;;;;;;5088669;28;20402;-72
2023/10/10 11:04:40;;;;;;;33.53;24.90;;;24.60;1.00;;;;;;5086472;28;20455;-72
2023/10/10 11:07:07;;;;;;;29.60;22.88;;;24.40;1.00;;;;;;5087020;28;20394;-72
2023/10/10 11:09:37;;;;;;;32.17;22.67;;;24.30;1.00;;;;;;5069298;28;20412;-72
2023/10/10 11:12:13;;;;;;;36.75;24.30;;;24.30;1.00;;;;;;5086500;28;20507;-72
2023/10/10 11:14:45;;;;;;;31.45;23.05;;;24.40;4.90;;;;;;5088723;28;20476;-72
2023/10/10 11:17:18;;;;;;;31.40;23.40;;;24.40;1.00;;;;;;5088101;28;20477;-72
2023/10/10 11:19:46;;;;;;;30.97;23.73;;;24.40;1.00;;;;;;5087535;28;20768;-72
2023/10/10 11:22:16;;;;;;;30.13;21.83;;;24.60;1.00;;;;;;5086632;28;20421;-72
2023/10/10 11:24:47;;;;;;;31.20;22.50;;;24.60;1.00;;;;;;5088454;28;20398;-72
2023/10/10 11:29:44;;;;;;;32.20;23.85;;;23.90;1.00;;;;;;5087867;28;20835;-72
2023/10/10 11:32:24;;;;;;;31.67;22.92;;;23.50;1.00;;;;;;5087770;28;20772;-71
2023/10/10 11:34:57;;;;;;;32.75;22.55;;;23.10;1.00;;;;;;5088071;28;20402;-72
2023/10/10 11:37:26;;;;;;;32.25;22.85;;;22.80;6.60;;;;;;5088433;28;20791;-72
2023/10/10 11:40:19;;;;;;;30.80;23.65;;;22.60;8.40;;;;;;5085753;28;20408;-72
2023/10/10 11:42:49;;;;;;;32.38;22.85;;;22.30;7.80;;;;;;5087207;28;20507;-71
2023/10/10 11:45:18;;;;;;;30.75;22.75;;;22.10;12.50;;;;;;5088131;28;20489;-72
2023/10/10 11:47:45;;;;;;;32.80;22.83;;;22.00;14.10;;;;;;5087345;28;20481;-72
2023/10/10 11:50:12;;;;;;;32.03;21.17;;;22.10;17.70;;;;;;5088254;28;20783;-71
2023/10/10 11:52:58;;;;;;;28.65;20.58;;;22.20;17.70;;;;;;5087971;28;20402;-72
2023/10/10 11:55:28;;;;;;;30.23;21.70;;;22.30;18.30;;;;;;5087641;28;20497;-72
2023/10/10 11:58:06;;;;;;;28.33;21.17;;;22.30;18.60;;;;;;5085702;28;20409;-72
2023/10/10 12:00:44;;;;;;;28.85;20.08;;;22.30;18.20;;;;;;5087136;28;20412;-72
2023/10/10 12:03:16;;;;;;;28.40;19.85;;;22.20;18.70;;;;;;5087891;28;20422;-71
2023/10/10 12:05:51;;;;;;;29.17;20.40;;;22.30;19.70;;;;;;5087491;28;20406;-72
2023/10/10 12:08:23;;;;;;;28.13;19.90;;;22.30;18.90;;;;;;5088338;28;20405;-71
2023/10/10 12:10:52;;;;;;;30.42;20.17;;;22.30;9.30;;;;;;5084253;28;20421;-71
2023/10/10 12:15:52;;;;;;;28.55;20.27;;;22.90;11.40;;;;;;5087452;28;20561;-72
2023/10/10 12:18:20;;;;;;;30.85;21.48;;;23.10;6.30;;;;;;5120184;27;20414;-72
2023/10/10 12:20:45;;;;;;;30.05;20.00;;;22.90;1.00;;;;;;5087576;28;20406;-71
2023/10/10 12:23:11;;;;;;;28.90;20.67;;;22.70;1.20;;;;;;5086782;28;20428;-73
2023/10/10 12:25:40;;;;;;;29.17;19.55;;;22.60;2.80;;;;;;5103046;28;20446;-71
2023/10/10 12:28:09;;;;;;;28.55;19.95;;;22.40;3.30;;;;;;5087238;28;21174;-71
2023/10/10 12:30:40;;;;;;;27.88;19.73;;;22.30;4.90;;;;;;5087115;28;20402;-72
2023/10/10 12:33:12;;;;;;;27.48;19.50;;;22.40;5.30;;;;;;5090480;28;20408;-72
2023/10/10 12:35:43;;;;;;;30.03;19.60;;;22.60;9.90;;;;;;5090957;28;20402;-72
2023/10/10 12:38:10;;;;;;;27.88;18.92;;;22.70;3.50;;;;;;5090916;28;20401;-72
2023/10/10 12:40:36;;;;;;;26.63;17.83;;;22.90;4.40;;;;;;5090821;28;20453;-72
2023/10/10 12:43:03;;;;;;;27.70;18.40;;;23.10;4.00;;;;;;5090706;28;20519;-72
2023/10/10 12:45:29;;;;;;;29.38;18.58;;;23.30;4.00;;;;;;5090395;28;20447;-72
2023/10/10 12:47:57;;;;;;;25.48;18.65;;;23.60;2.90;;;;;;5091196;28;20437;-71
2023/10/10 12:50:26;;;;;;;23.05;17.25;;;24.40;1.00;;;;;;5091048;28;20401;-72
2023/10/10 12:53:07;;;;;;;25.27;18.77;;;25.20;1.00;;;;;;5090827;28;20451;-72
2023/10/10 12:55:34;;;;;;;26.35;18.70;;;25.30;1.00;;;;;;5090217;28;20412;-72
2023/10/10 12:58:10;;;;;;;27.80;18.58;;;25.50;1.00;;;;;;5091026;28;20402;-71
2023/10/10 13:00:36;;;;;;;27.40;18.05;;;25.90;1.00;;;;;;5090778;28;20406;-72
2023/10/10 13:03:06;;;;;;;26.10;17.92;;;26.40;1.00;;;;;;5091135;28;20426;-72
2023/10/10 13:05:33;;;;;;;27.48;18.20;;;26.10;1.00;;;;;;5090854;28;20420;-72
2023/10/10 13:07:59;;;;;;;26.48;18.15;;;25.50;1.00;;;;;;5090625;28;20414;-71
2023/10/10 13:10:30;;;;;;;26.08;18.60;;;25.00;1.00;;;;;;5090372;28;20412;-71
2023/10/10 13:12:56;;;;;;;28.33;19.25;;;24.50;1.00;;;;;;5090855;28;20478;-71
2023/10/10 13:15:29;;;;;;;27.58;18.55;;;24.20;1.00;;;;;;5090340;28;20511;-71
2023/10/10 13:18:19;;;;;;;25.35;17.73;;;24.10;1.00;;;;;;5090798;28;20405;-72
2023/10/10 13:20:47;;;;;;;23.38;17.38;;;24.50;1.00;;;;;;5071552;28;20493;-71
2023/10/10 13:23:13;;;;;;;26.58;18.02;;;24.70;1.00;;;;;;5089846;28;20430;-71
2023/10/10 13:25:39;;;;;;;25.33;17.87;;;24.40;1.00;;;;;;5090363;28;20915;-71
2023/10/10 13:28:17;;;;;;;25.67;18.67;;;24.10;1.00;;;;;;5090550;28;20409;-71
2023/10/10 13:30:45;;;;;;;26.40;18.65;;;23.90;1.00;;;;;;5080775;28;20398;-71
2023/10/10 13:33:10;;;;;;;26.83;18.33;;;23.60;1.00;;;;;;5088583;28;20916;-71
2023/10/10 13:35:37;;;;;;;28.27;18.70;;;23.50;1.00;;;;;;5089869;28;20405;-71
2023/10/10 13:38:06;;;;;;;24.88;18.63;;;23.40;1.00;;;;;;5088374;28;20749;-71
2023/10/10 13:40:44;;;;;;;25.00;17.40;;;23.30;1.00;;;;;;5090443;28;20841;-71
2023/10/10 13:43:15;;;;;;;25.07;18.17;;;23.20;1.00;;;;;;5084574;28;20426;-71
2023/10/10 13:45:41;;;;;;;26.23;18.75;;;23.10;1.00;;;;;;5089743;28;20402;-71
2023/10/10 13:48:13;;;;;;;24.25;17.65;;;22.90;1.00;;;;;;5089568;28;20409;-71
2023/10/10 13:50:44;;;;;;;25.60;17.73;;;22.80;1.00;;;;;;5089351;28;20485;-71
2023/10/10 13:53:14;;;;;;;24.83;18.25;;;22.70;1.00;;;;;;5089967;28;20454;-71
2023/10/10 13:55:42;;;;;;;26.00;18.05;;;22.60;1.00;;;;;;5089642;28;20919;-71
2023/10/10 13:58:13;;;;;;;24.15;17.63;;;22.50;1.70;;;;;;5089570;28;20893;-71
2023/10/10 14:00:41;;;;;;;25.02;17.77;;;22.40;1.00;;;;;;5087898;28;20818;-72
2023/10/10 14:03:07;;;;;;;27.10;18.35;;;22.40;2.30;;;;;;5090054;28;20509;-71
2023/10/10 14:05:37;;;;;;;25.77;16.35;;;22.40;6.10;;;;;;5089098;28;20406;-71
2023/10/10 14:08:17;;;;;;;25.67;17.55;;;22.30;5.90;;;;;;5087906;28;20410;-71
2023/10/10 14:10:43;;;;;;;24.20;17.50;;;22.30;6.20;;;;;;5089218;28;20500;-71
2023/10/10 14:13:18;;;;;;;26.77;17.48;;;22.30;7.00;;;;;;5089097;28;20405;-71
2023/10/10 14:15:55;;;;;;;25.95;16.85;;;22.20;8.10;;;;;;5088188;28;20398;-71
2023/10/10 14:18:27;;;;;;;23.23;17.17;;;22.20;8.20;;;;;;5088723;28;20544;-71
2023/10/10 14:20:54;;;;;;;23.60;16.27;;;22.20;8.60;;;;;;5078336;28;20406;-71
2023/10/10 14:23:24;;;;;;;25.17;15.30;;;22.10;7.60;;;;;;5088736;28;20907;-71
2023/10/10 14:25:51;;;;;;;22.02;15.40;;;22.10;8.40;;;;;;5089089;28;20406;-71
2023/10/10 14:28:19;;;;;;;21.95;15.32;;;22.00;7.00;;;;;;5088675;28;20822;-72
2023/10/10 14:30:49;;;;;;;21.38;14.88;;;21.90;5.60;;;;;;5088987;28;20413;-71
2023/10/10 14:33:16;;;;;;;24.13;15.60;;;21.80;6.40;;;;;;5088279;28;20402;-71
2023/10/10 14:35:43;;;;;;;21.15;15.07;;;21.80;4.80;;;;;;5089108;28;20403;-71
2023/10/10 14:38:16;;;;;;;20.42;15.05;;;21.70;3.90;;;;;;5086988;28;20398;-72
2023/10/10 14:40:43;;;;;;;22.70;14.80;;;21.60;4.70;;;;;;5089269;28;20422;-71
2023/10/10 14:43:10;;;;;;;21.55;15.00;;;21.60;4.90;;;;;;5085423;28;20422;-71
2023/10/10 14:45:42;;;;;;;22.13;15.07;;;21.50;6.30;;;;;;5071398;28;20492;-71
2023/10/10 14:48:09;;;;;;;21.50;14.80;;;21.50;6.90;;;;;;5082030;28;20406;-71
2023/10/10 14:50:39;;;;;;;21.23;14.43;;;21.40;8.30;;;;;;5081677;28;20401;-71
2023/10/10 14:53:08;;;;;;;23.48;14.98;;;21.30;9.40;;;;;;5085567;28;20393;-73
2023/10/10 14:55:39;;;;;;;21.30;14.77;;;21.30;9.50;;;;;;5088271;28;20398;-71
2023/10/10 14:58:09;;;;;;;24.10;14.90;;;21.30;11.20;;;;;;5088358;28;20903;-71
2023/10/10 15:00:40;;;;;;;20.80;14.15;;;21.20;12.40;;;;;;5088069;28;20499;-71
2023/10/10 15:03:12;;;;;;;21.85;14.50;;;21.20;13.30;;;;;;5086761;28;21146;-71
2023/10/10 15:05:51;;;;;;;19.77;14.38;;;21.20;13.90;;;;;;5088203;28;20398;-71
2023/10/10 15:08:21;;;;;;;21.20;14.07;;;21.20;15.00;;;;;;5093336;28;20412;-69
2023/10/10 15:10:51;;;;;;;19.40;14.38;;;21.10;15.70;;;;;;5087957;28;20459;-70
2023/10/10 15:13:17;;;;;;;21.38;14.30;;;21.10;16.80;;;;;;5079188;28;20433;-71
2023/10/10 15:15:48;;;;;;;22.80;14.73;;;21.10;17.90;;;;;;5087701;28;20402;-68
2023/10/10 15:18:15;;;;;;;21.05;14.70;;;21.10;18.00;;;;;;5086509;28;21016;-72
2023/10/10 15:20:46;;;;;;;22.15;15.45;;;21.10;18.90;;;;;;5070318;28;20414;-72
2023/10/10 15:23:20;;;;;;;20.55;14.95;;;21.00;19.00;;;;;;5086639;28;20582;-72
2023/10/10 15:25:54;;;;;;;21.70;14.80;;;21.00;19.80;;;;;;5078922;28;21268;-73
2023/10/10 15:28:21;;;;;;;25.67;16.92;;;21.00;19.70;;;;;;5087664;28;20406;-72
2023/10/10 15:30:47;;;;;;;21.73;15.65;;;21.00;19.10;;;;;;5088133;28;20408;-72
2023/10/10 15:33:17;;;;;;;23.05;15.70;;;21.00;18.80;;;;;;5087739;28;20488;-72
2023/10/10 15:35:50;;;;;;;24.05;15.93;;;20.90;19.90;;;;;;5087703;28;20415;-72
2023/10/10 15:38:17;;;;;;;23.35;16.23;;;21.00;20.00;;;;;;5087808;28;20409;-72